sensor_id;sensor_type;location;lat;lon;timestamp;pressure;altitude;pressure_sealevel;temperature;humidity
56600;BME280;51832;48.152;11.530;2022-09-03T00:00:57;95225.72;;;22.49;36.94
56600;BME280;51832;48.152;11.530;2022-09-03T00:06:30;95239.34;;;22.39;37.22
56600;BME280;51832;48.152;11.530;2022-09-03T00:16:56;95232.59;;;22.28;37.52
56600;BME280;51832;48.152;11.530;2022-09-03T00:22:23;95242.44;;;22.19;37.70
56600;BME280;51832;48.152;11.530;2022-09-03T00:27:27;95230.13;;;22.18;37.84
56600;BME280;51832;48.152;11.530;2022-09-03T00:32:58;95231.94;;;22.09;38.27
56600;BME280;51832;48.152;11.530;2022-09-03T00:38:05;95227.34;;;21.95;38.52
56600;BME280;51832;48.152;11.530;2022-09-03T00:48:29;95210.28;;;21.64;39.88
56600;BME280;51832;48.152;11.530;2022-09-03T01:20:07;95230.91;;;21.50;40.00
56600;BME280;51832;48.152;11.530;2022-09-03T01:30:38;95228.81;;;21.47;40.34
56600;BME280;51832;48.152;11.530;2022-09-03T01:35:47;95222.66;;;21.46;40.65
56600;BME280;51832;48.152;11.530;2022-09-03T01:46:38;95209.66;;;21.40;40.62
56600;BME280;51832;48.152;11.530;2022-09-03T01:51:39;95221.38;;;21.44;40.67
56600;BME280;51832;48.152;11.530;2022-09-03T02:02:21;95224.84;;;21.31;40.99
56600;BME280;51832;48.152;11.530;2022-09-03T02:07:24;95215.94;;;21.16;41.49
56600;BME280;51832;48.152;11.530;2022-09-03T02:12:29;95206.34;;;21.15;41.85
56600;BME280;51832;48.152;11.530;2022-09-03T02:17:33;95201.03;;;20.97;42.41
56600;BME280;51832;48.152;11.530;2022-09-03T02:22:34;95202.78;;;20.87;42.58
56600;BME280;51832;48.152;11.530;2022-09-03T02:27:37;95212.81;;;20.96;42.38
56600;BME280;51832;48.152;11.530;2022-09-03T02:32:38;95216.56;;;20.94;42.49
56600;BME280;51832;48.152;11.530;2022-09-03T02:37:38;95220.13;;;20.90;42.77
56600;BME280;51832;48.152;11.530;2022-09-03T02:42:39;95219.56;;;20.74;42.81
56600;BME280;51832;48.152;11.530;2022-09-03T02:47:41;95219.28;;;20.76;43.06
56600;BME280;51832;48.152;11.530;2022-09-03T02:52:43;95220.22;;;20.66;43.13
56600;BME280;51832;48.152;11.530;2022-09-03T02:57:44;95212.78;;;20.63;43.15
56600;BME280;51832;48.152;11.530;2022-09-03T03:02:45;95198.19;;;20.74;43.02
56600;BME280;51832;48.152;11.530;2022-09-03T03:07:46;95209.63;;;20.61;43.55
56600;BME280;51832;48.152;11.530;2022-09-03T03:12:46;95209.03;;;20.45;44.15
56600;BME280;51832;48.152;11.530;2022-09-03T03:17:47;95210.47;;;20.38;44.48
56600;BME280;51832;48.152;11.530;2022-09-03T03:22:48;95214.00;;;20.33;44.46
56600;BME280;51832;48.152;11.530;2022-09-03T03:27:48;95210.59;;;20.28;44.58
56600;BME280;51832;48.152;11.530;2022-09-03T03:32:48;95208.56;;;20.19;45.00
56600;BME280;51832;48.152;11.530;2022-09-03T03:37:49;95216.88;;;20.18;45.02
56600;BME280;51832;48.152;11.530;2022-09-03T03:42:50;95218.28;;;20.10;45.13
56600;BME280;51832;48.152;11.530;2022-09-03T03:47:50;95224.72;;;20.09;45.24
56600;BME280;51832;48.152;11.530;2022-09-03T03:52:51;95225.06;;;20.03;45.63
56600;BME280;51832;48.152;11.530;2022-09-03T03:57:52;95224.66;;;20.14;45.22
56600;BME280;51832;48.152;11.530;2022-09-03T04:02:52;95216.78;;;20.04;45.64
56600;BME280;51832;48.152;11.530;2022-09-03T04:07:53;95209.63;;;20.00;46.29
56600;BME280;51832;48.152;11.530;2022-09-03T04:12:53;95208.03;;;19.99;45.72
56600;BME280;51832;48.152;11.530;2022-09-03T04:17:54;95206.97;;;20.18;46.86
56600;BME280;51832;48.152;11.530;2022-09-03T04:22:54;95220.41;;;20.88;46.16
56600;BME280;51832;48.152;11.530;2022-09-03T04:27:54;95224.44;;;21.37;44.34
56600;BME280;51832;48.152;11.530;2022-09-03T04:32:55;95220.66;;;21.38;43.98
56600;BME280;51832;48.152;11.530;2022-09-03T04:37:56;95227.44;;;21.49;43.10
56600;BME280;51832;48.152;11.530;2022-09-03T04:42:57;95242.53;;;21.73;45.82
56600;BME280;51832;48.152;11.530;2022-09-03T04:48:01;95236.78;;;22.70;43.14
56600;BME280;51832;48.152;11.530;2022-09-03T04:53:03;95241.69;;;23.35;40.43
56600;BME280;51832;48.152;11.530;2022-09-03T04:58:04;95245.59;;;23.82;38.99
56600;BME280;51832;48.152;11.530;2022-09-03T05:03:07;95254.81;;;23.98;38.06
56600;BME280;51832;48.152;11.530;2022-09-03T05:08:07;95259.19;;;24.25;37.33
56600;BME280;51832;48.152;11.530;2022-09-03T05:13:07;95254.72;;;23.72;38.41
56600;BME280;51832;48.152;11.530;2022-09-03T05:18:08;95264.56;;;23.55;38.79
56600;BME280;51832;48.152;11.530;2022-09-03T05:23:08;95277.13;;;22.65;41.07
56600;BME280;51832;48.152;11.530;2022-09-03T05:28:09;95296.91;;;22.55;40.41
56600;BME280;51832;48.152;11.530;2022-09-03T05:33:10;95314.38;;;21.84;42.53
56600;BME280;51832;48.152;11.530;2022-09-03T05:38:10;95295.72;;;21.47;44.50
56600;BME280;51832;48.152;11.530;2022-09-03T05:43:10;95292.06;;;22.44;42.18
56600;BME280;51832;48.152;11.530;2022-09-03T05:48:11;95288.19;;;22.99;40.91
56600;BME280;51832;48.152;11.530;2022-09-03T05:53:11;95298.09;;;23.57;39.38
56600;BME280;51832;48.152;11.530;2022-09-03T05:58:12;95299.78;;;24.15;38.47
56600;BME280;51832;48.152;11.530;2022-09-03T06:03:12;95301.97;;;24.53;37.57
56600;BME280;51832;48.152;11.530;2022-09-03T06:08:12;95308.78;;;24.50;37.66
56600;BME280;51832;48.152;11.530;2022-09-03T06:13:13;95309.38;;;24.38;37.61
56600;BME280;51832;48.152;11.530;2022-09-03T06:18:13;95302.59;;;24.41;37.82
56600;BME280;51832;48.152;11.530;2022-09-03T06:23:14;95309.28;;;23.82;39.18
56600;BME280;51832;48.152;11.530;2022-09-03T06:28:14;95305.16;;;24.15;38.14
56600;BME280;51832;48.152;11.530;2022-09-03T06:33:15;95310.28;;;24.25;38.27
56600;BME280;51832;48.152;11.530;2022-09-03T06:38:17;95311.50;;;24.19;38.44
56600;BME280;51832;48.152;11.530;2022-09-03T06:43:18;95311.25;;;23.98;39.56
56600;BME280;51832;48.152;11.530;2022-09-03T06:48:19;95343.28;;;22.83;42.14
56600;BME280;51832;48.152;11.530;2022-09-03T06:53:22;95341.34;;;21.88;44.15
56600;BME280;51832;48.152;11.530;2022-09-03T06:58:23;95342.78;;;20.97;46.16
56600;BME280;51832;48.152;11.530;2022-09-03T07:03:24;95351.09;;;21.14;46.17
56600;BME280;51832;48.152;11.530;2022-09-03T07:08:24;95334.69;;;21.02;48.71
56600;BME280;51832;48.152;11.530;2022-09-03T07:13:25;95340.66;;;21.82;44.78
56600;BME280;51832;48.152;11.530;2022-09-03T07:18:26;95338.16;;;21.21;48.47
56600;BME280;51832;48.152;11.530;2022-09-03T07:23:27;95345.59;;;21.75;46.03
56600;BME280;51832;48.152;11.530;2022-09-03T07:28:29;95352.47;;;21.11;47.05
56600;BME280;51832;48.152;11.530;2022-09-03T07:33:31;95349.41;;;21.55;45.83
56600;BME280;51832;48.152;11.530;2022-09-03T07:38:34;95343.00;;;22.16;44.77
56600;BME280;51832;48.152;11.530;2022-09-03T07:43:39;95352.75;;;22.40;44.33
56600;BME280;51832;48.152;11.530;2022-09-03T07:48:42;95344.69;;;23.17;41.98
56600;BME280;51832;48.152;11.530;2022-09-03T07:53:44;95353.72;;;23.43;41.10
56600;BME280;51832;48.152;11.530;2022-09-03T07:58:44;95349.50;;;23.28;44.72
56600;BME280;51832;48.152;11.530;2022-09-03T08:03:49;95357.91;;;22.77;43.91
56600;BME280;51832;48.152;11.530;2022-09-03T08:08:58;95357.56;;;21.64;46.79
56600;BME280;51832;48.152;11.530;2022-09-03T08:14:01;95360.44;;;21.35;48.10
56600;BME280;51832;48.152;11.530;2022-09-03T08:19:02;95363.09;;;20.98;50.87
56600;BME280;51832;48.152;11.530;2022-09-03T08:24:02;95359.50;;;21.26;50.77
56600;BME280;51832;48.152;11.530;2022-09-03T08:29:04;95365.94;;;21.25;51.82
56600;BME280;51832;48.152;11.530;2022-09-03T08:34:05;95363.66;;;20.94;55.57
56600;BME280;51832;48.152;11.530;2022-09-03T08:39:07;95354.66;;;21.60;51.62
56600;BME280;51832;48.152;11.530;2022-09-03T08:54:42;95361.75;;;22.85;48.31
56600;BME280;51832;48.152;11.530;2022-09-03T08:59:43;95356.50;;;23.16;48.03
56600;BME280;51832;48.152;11.530;2022-09-03T09:05:08;95351.41;;;23.28;47.68
56600;BME280;51832;48.152;11.530;2022-09-03T09:10:15;95347.50;;;23.79;46.18
56600;BME280;51832;48.152;11.530;2022-09-03T09:15:40;95350.91;;;23.93;45.93
56600;BME280;51832;48.152;11.530;2022-09-03T09:20:49;95337.81;;;23.69;47.86
56600;BME280;51832;48.152;11.530;2022-09-03T09:25:53;95331.47;;;23.65;48.08
56600;BME280;51832;48.152;11.530;2022-09-03T09:30:56;95323.84;;;23.58;48.47
56600;BME280;51832;48.152;11.530;2022-09-03T09:36:06;95327.53;;;23.62;48.24
56600;BME280;51832;48.152;11.530;2022-09-03T09:41:12;95322.66;;;24.35;46.49
56600;BME280;51832;48.152;11.530;2022-09-03T09:46:23;95324.69;;;23.98;46.75
56600;BME280;51832;48.152;11.530;2022-09-03T09:51:29;95322.50;;;24.31;45.97
56600;BME280;51832;48.152;11.530;2022-09-03T09:56:30;95324.75;;;24.47;46.02
56600;BME280;51832;48.152;11.530;2022-09-03T10:01:31;95330.28;;;24.50;46.68
56600;BME280;51832;48.152;11.530;2022-09-03T10:06:31;95332.94;;;24.02;45.64
56600;BME280;51832;48.152;11.530;2022-09-03T10:12:07;95324.88;;;23.71;46.81
56600;BME280;51832;48.152;11.530;2022-09-03T10:17:25;95313.44;;;23.88;47.13
56600;BME280;51832;48.152;11.530;2022-09-03T10:22:27;95322.50;;;24.31;46.02
56600;BME280;51832;48.152;11.530;2022-09-03T10:27:29;95317.31;;;24.52;44.90
56600;BME280;51832;48.152;11.530;2022-09-03T10:38:39;95327.91;;;25.23;42.84
56600;BME280;51832;48.152;11.530;2022-09-03T10:44:05;95325.75;;;24.76;43.65
56600;BME280;51832;48.152;11.530;2022-09-03T10:49:19;95307.56;;;24.91;43.58
56600;BME280;51832;48.152;11.530;2022-09-03T10:54:36;95301.59;;;25.28;43.59
56600;BME280;51832;48.152;11.530;2022-09-03T11:00:14;95307.75;;;25.55;41.91
56600;BME280;51832;48.152;11.530;2022-09-03T11:05:20;95301.66;;;25.83;41.60
56600;BME280;51832;48.152;11.530;2022-09-03T11:10:25;95308.41;;;25.69;41.34
56600;BME280;51832;48.152;11.530;2022-09-03T11:20:32;95285.50;;;25.83;39.86
56600;BME280;51832;48.152;11.530;2022-09-03T11:25:40;95271.91;;;25.80;40.34
56600;BME280;51832;48.152;11.530;2022-09-03T11:35:57;95281.31;;;26.03;39.06
56600;BME280;51832;48.152;11.530;2022-09-03T11:41:13;95288.53;;;26.20;38.91
56600;BME280;51832;48.152;11.530;2022-09-03T11:56:25;95260.50;;;26.92;37.75
56600;BME280;51832;48.152;11.530;2022-09-03T12:01:26;95265.31;;;26.86;38.34
56600;BME280;51832;48.152;11.530;2022-09-03T12:12:03;95248.63;;;27.47;41.98
56600;BME280;51832;48.152;11.530;2022-09-03T12:22:22;95248.13;;;27.12;36.11
56600;BME280;51832;48.152;11.530;2022-09-03T12:27:25;95251.69;;;27.57;35.43
56600;BME280;51832;48.152;11.530;2022-09-03T12:32:28;95238.03;;;27.54;35.77
56600;BME280;51832;48.152;11.530;2022-09-03T12:37:32;95233.09;;;28.25;35.09
56600;BME280;51832;48.152;11.530;2022-09-03T12:42:35;95235.53;;;28.67;34.59
56600;BME280;51832;48.152;11.530;2022-09-03T12:47:39;95233.13;;;29.46;33.20
56600;BME280;51832;48.152;11.530;2022-09-03T12:52:58;95229.84;;;29.84;32.92
56600;BME280;51832;48.152;11.530;2022-09-03T12:58:07;95228.19;;;29.95;31.93
56600;BME280;51832;48.152;11.530;2022-09-03T13:03:23;95216.41;;;30.19;32.20
56600;BME280;51832;48.152;11.530;2022-09-03T13:08:32;95213.91;;;30.45;31.28
56600;BME280;51832;48.152;11.530;2022-09-03T13:13:38;95212.53;;;29.88;31.64
56600;BME280;51832;48.152;11.530;2022-09-03T13:29:16;95225.81;;;29.62;32.12
56600;BME280;51832;48.152;11.530;2022-09-03T13:34:33;95231.59;;;30.39;30.82
56600;BME280;51832;48.152;11.530;2022-09-03T13:39:47;95229.91;;;29.56;31.92
56600;BME280;51832;48.152;11.530;2022-09-03T13:44:55;95227.03;;;28.93;33.26
56600;BME280;51832;48.152;11.530;2022-09-03T13:50:07;95229.31;;;28.67;33.26
56600;BME280;51832;48.152;11.530;2022-09-03T13:55:27;95224.72;;;27.82;34.59
56600;BME280;51832;48.152;11.530;2022-09-03T14:21:50;95265.44;;;26.69;38.68
56600;BME280;51832;48.152;11.530;2022-09-03T14:26:57;95344.03;;;24.09;52.84
56600;BME280;51832;48.152;11.530;2022-09-03T14:32:18;95378.38;;;19.39;68.15
56600;BME280;51832;48.152;11.530;2022-09-03T14:37:31;95380.47;;;19.81;69.94
56600;BME280;51832;48.152;11.530;2022-09-03T14:58:47;95372.97;;;21.21;69.75
56600;BME280;51832;48.152;11.530;2022-09-03T15:04:17;95432.50;;;21.08;66.65
56600;BME280;51832;48.152;11.530;2022-09-03T15:14:48;95367.41;;;21.69;64.25
56600;BME280;51832;48.152;11.530;2022-09-03T15:20:18;95381.31;;;22.30;65.76
56600;BME280;51832;48.152;11.530;2022-09-03T15:26:17;95361.59;;;22.26;62.96
56600;BME280;51832;48.152;11.530;2022-09-03T15:31:19;95385.88;;;21.14;64.33
56600;BME280;51832;48.152;11.530;2022-09-03T15:36:23;95380.59;;;20.47;67.32
56600;BME280;51832;48.152;11.530;2022-09-03T15:47:02;95397.34;;;20.29;66.98
56600;BME280;51832;48.152;11.530;2022-09-03T15:57:28;95401.22;;;20.42;67.49
56600;BME280;51832;48.152;11.530;2022-09-03T16:02:46;95388.31;;;20.91;67.28
56600;BME280;51832;48.152;11.530;2022-09-03T16:08:07;95383.97;;;20.29;68.24
56600;BME280;51832;48.152;11.530;2022-09-03T16:13:31;95402.00;;;21.46;65.88
56600;BME280;51832;48.152;11.530;2022-09-03T16:24:09;95387.13;;;25.23;51.81
56600;BME280;51832;48.152;11.530;2022-09-03T16:29:14;95381.41;;;26.02;49.59
56600;BME280;51832;48.152;11.530;2022-09-03T16:49:49;95362.13;;;25.22;51.03
56600;BME280;51832;48.152;11.530;2022-09-03T17:00:14;95358.28;;;25.83;49.31
56600;BME280;51832;48.152;11.530;2022-09-03T17:15:41;95361.88;;;23.52;57.32
56600;BME280;51832;48.152;11.530;2022-09-03T17:36:25;95366.06;;;24.51;54.96
56600;BME280;51832;48.152;11.530;2022-09-03T17:41:54;95375.03;;;23.03;58.12
56600;BME280;51832;48.152;11.530;2022-09-03T17:52:27;95374.91;;;21.34;63.65
56600;BME280;51832;48.152;11.530;2022-09-03T17:57:49;95375.97;;;21.33;63.39
56600;BME280;51832;48.152;11.530;2022-09-03T18:08:20;95384.81;;;21.15;62.74
56600;BME280;51832;48.152;11.530;2022-09-03T18:13:55;95380.38;;;21.05;62.84
56600;BME280;51832;48.152;11.530;2022-09-03T18:24:33;95404.88;;;20.93;63.18
56600;BME280;51832;48.152;11.530;2022-09-03T18:30:07;95408.34;;;20.51;63.04
56600;BME280;51832;48.152;11.530;2022-09-03T18:35:29;95412.53;;;20.34;64.00
56600;BME280;51832;48.152;11.530;2022-09-03T18:40:53;95413.56;;;20.38;64.70
56600;BME280;51832;48.152;11.530;2022-09-03T18:46:27;95428.03;;;20.61;63.89
56600;BME280;51832;48.152;11.530;2022-09-03T19:13:58;95426.41;;;19.78;65.71
56600;BME280;51832;48.152;11.530;2022-09-03T19:25:02;95439.69;;;19.44;67.58
56600;BME280;51832;48.152;11.530;2022-09-03T19:47:21;95450.47;;;20.07;65.94
56600;BME280;51832;48.152;11.530;2022-09-03T19:52:54;95456.16;;;20.24;66.25
56600;BME280;51832;48.152;11.530;2022-09-03T19:58:22;95471.28;;;20.39;64.15
56600;BME280;51832;48.152;11.530;2022-09-03T20:03:42;95479.66;;;21.04;61.85
56600;BME280;51832;48.152;11.530;2022-09-03T20:09:08;95475.88;;;21.05;61.32
56600;BME280;51832;48.152;11.530;2022-09-03T20:14:29;95481.69;;;21.54;61.51
56600;BME280;51832;48.152;11.530;2022-09-03T20:24:57;95491.38;;;21.69;58.39
56600;BME280;51832;48.152;11.530;2022-09-03T20:30:15;95500.25;;;21.46;60.55
56600;BME280;51832;48.152;11.530;2022-09-03T20:51:36;95500.75;;;21.05;60.63
56600;BME280;51832;48.152;11.530;2022-09-03T20:57:13;95501.28;;;20.83;61.57
56600;BME280;51832;48.152;11.530;2022-09-03T21:18:14;95506.88;;;20.63;61.45
56600;BME280;51832;48.152;11.530;2022-09-03T21:23:20;95515.00;;;20.19;63.21
56600;BME280;51832;48.152;11.530;2022-09-03T21:28:27;95519.09;;;19.72;65.17
56600;BME280;51832;48.152;11.530;2022-09-03T21:33:32;95524.56;;;19.47;66.33
56600;BME280;51832;48.152;11.530;2022-09-03T21:38:37;95527.16;;;19.03;67.86
56600;BME280;51832;48.152;11.530;2022-09-03T21:43:51;95522.44;;;18.85;68.36
56600;BME280;51832;48.152;11.530;2022-09-03T21:49:00;95524.59;;;18.67;69.54
56600;BME280;51832;48.152;11.530;2022-09-03T21:54:22;95531.50;;;18.73;69.13
56600;BME280;51832;48.152;11.530;2022-09-03T22:04:46;95530.59;;;19.08;67.08
56600;BME280;51832;48.152;11.530;2022-09-03T22:10:02;95536.63;;;19.34;66.21
56600;BME280;51832;48.152;11.530;2022-09-03T22:15:08;95530.00;;;19.27;66.07
56600;BME280;51832;48.152;11.530;2022-09-03T22:20:13;95521.88;;;19.47;65.95
56600;BME280;51832;48.152;11.530;2022-09-03T22:25:26;95524.13;;;19.79;63.62
56600;BME280;51832;48.152;11.530;2022-09-03T22:36:12;95540.38;;;19.33;65.26
56600;BME280;51832;48.152;11.530;2022-09-03T22:47:06;95529.44;;;19.35;66.20
56600;BME280;51832;48.152;11.530;2022-09-03T22:57:36;95531.84;;;19.31;64.71
56600;BME280;51832;48.152;11.530;2022-09-03T23:02:40;95521.84;;;19.57;64.52
56600;BME280;51832;48.152;11.530;2022-09-03T23:12:49;95532.97;;;19.69;63.81
56600;BME280;51832;48.152;11.530;2022-09-03T23:18:12;95530.97;;;19.95;62.56
56600;BME280;51832;48.152;11.530;2022-09-03T23:23:21;95537.31;;;19.60;63.97
56600;BME280;51832;48.152;11.530;2022-09-03T23:33:23;95543.19;;;19.57;64.50
56600;BME280;51832;48.152;11.530;2022-09-03T23:44:17;95529.03;;;19.02;65.79
56600;BME280;51832;48.152;11.530;2022-09-03T23:54:46;95542.44;;;18.77;67.38
